createdAt,value
2019-03-16T00:01:57.413Z,22.67
2019-03-16T00:04:58.996Z,22.50
2019-03-16T00:08:02.579Z,20.77
2019-03-16T00:11:06.168Z,20.57
2019-03-16T00:14:09.746Z,21.30
2019-03-16T00:17:23.065Z,20.37
2019-03-16T00:20:18.952Z,19.43
2019-03-16T00:23:22.537Z,18.60
2019-03-16T00:26:26.116Z,17.63
2019-03-16T00:29:29.974Z,17.77
2019-03-16T00:32:33.546Z,16.33
2019-03-16T00:35:37.390Z,50.13
2019-03-16T00:38:41.068Z,31.03
2019-03-16T00:41:44.638Z,44.50
2019-03-16T00:44:48.238Z,34.20
2019-03-16T00:47:52.057Z,39.87
2019-03-16T00:50:56.428Z,36.30
2019-03-16T00:54:00.295Z,35.90
2019-03-16T00:57:03.960Z,34.67
2019-03-16T01:00:08.900Z,32.97
2019-03-16T01:03:12.477Z,32.40
2019-03-16T01:06:16.050Z,28.83
2019-03-16T01:09:19.645Z,28.90
2019-03-16T01:12:23.857Z,26.50
2019-03-16T01:15:27.675Z,26.57
2019-03-16T01:18:31.482Z,25.07
2019-03-16T01:21:35.409Z,25.70
2019-03-16T01:24:38.985Z,25.80
2019-03-16T01:27:42.554Z,25.87
2019-03-16T01:30:46.421Z,24.70
2019-03-16T01:33:49.990Z,22.63
2019-03-16T01:36:53.572Z,21.40
2019-03-16T01:39:57.983Z,21.67
2019-03-16T01:43:01.862Z,22.17
2019-03-16T01:46:05.529Z,18.77
2019-03-16T01:49:09.390Z,21.60
2019-03-16T01:52:12.953Z,19.07
2019-03-16T01:55:16.527Z,18.30
2019-03-16T01:58:20.401Z,17.90
2019-03-16T02:01:23.985Z,19.27
2019-03-16T02:04:27.912Z,18.87
2019-03-16T02:07:31.477Z,18.67
2019-03-16T02:10:35.071Z,16.50
2019-03-16T02:13:38.965Z,15.47
2019-03-16T02:16:42.534Z,17.07
2019-03-16T02:19:46.120Z,16.50
2019-03-16T02:22:49.936Z,15.97
2019-03-16T02:25:54.174Z,16.23
2019-03-16T02:28:58.009Z,14.17
2019-03-16T02:32:01.587Z,14.60
2019-03-16T02:35:06.216Z,13.80
2019-03-16T02:38:09.817Z,13.73
2019-03-16T02:41:13.723Z,13.50
2019-03-16T02:44:17.597Z,13.87
2019-03-16T02:47:21.191Z,13.17
2019-03-16T02:50:24.789Z,13.43
2019-03-16T02:53:28.930Z,12.53
2019-03-16T02:56:32.525Z,13.30
2019-03-16T02:59:36.386Z,13.47
2019-03-16T03:02:40.490Z,12.53
2019-03-16T03:05:44.260Z,11.80
2019-03-16T03:08:48.516Z,12.03
2019-03-16T03:11:52.144Z,12.13
2019-03-16T03:14:55.760Z,11.20
2019-03-16T03:17:59.373Z,11.47
2019-03-16T03:21:02.959Z,11.57
2019-03-16T03:24:06.557Z,11.00
2019-03-16T03:27:10.178Z,10.60
2019-03-16T03:30:14.143Z,10.47
2019-03-16T03:33:17.747Z,10.20
2019-03-16T03:36:21.670Z,9.43
2019-03-16T03:39:25.652Z,9.83
2019-03-16T03:42:29.229Z,10.50
2019-03-16T03:45:33.143Z,9.57
2019-03-16T03:48:37.338Z,9.30
2019-03-16T03:51:40.962Z,9.63
2019-03-16T03:54:44.631Z,9.00
2019-03-16T03:57:48.232Z,8.90
2019-03-16T04:00:52.293Z,9.33
2019-03-16T04:04:13.643Z,9.03
2019-03-16T04:07:01.758Z,8.30
2019-03-16T04:10:06.286Z,8.57
2019-03-16T04:13:10.221Z,8.77
2019-03-16T04:16:13.851Z,8.47
2019-03-16T04:19:17.443Z,8.37
2019-03-16T04:22:21.367Z,8.00
2019-03-16T04:25:24.953Z,7.67
2019-03-16T04:28:28.539Z,7.37
2019-03-16T04:31:32.492Z,7.93
2019-03-16T04:34:36.396Z,7.40
2019-03-16T04:37:40.309Z,7.20
2019-03-16T04:40:44.724Z,6.77
2019-03-16T04:43:48.820Z,7.13
2019-03-16T04:46:52.782Z,7.07
2019-03-16T04:49:56.955Z,7.13
2019-03-16T04:53:00.845Z,6.63
2019-03-16T04:56:04.421Z,6.63
2019-03-16T04:59:08.020Z,7.00
2019-03-16T05:02:11.666Z,6.50
2019-03-16T05:05:15.515Z,7.47
2019-03-16T05:08:19.117Z,7.50
2019-03-16T05:11:22.741Z,6.20
2019-03-16T05:14:26.634Z,6.33
2019-03-16T05:17:30.485Z,6.73
2019-03-16T05:20:34.339Z,6.40
2019-03-16T05:23:37.993Z,6.33
2019-03-16T05:26:41.863Z,6.50
2019-03-16T05:29:45.452Z,6.30
2019-03-16T05:32:49.675Z,6.50
2019-03-16T05:35:53.288Z,6.50
2019-03-16T05:38:57.219Z,6.07
2019-03-16T05:42:00.803Z,6.30
2019-03-16T05:45:05.249Z,5.80
2019-03-16T05:48:08.877Z,5.87
2019-03-16T05:51:13.042Z,6.27
2019-03-16T05:54:16.635Z,5.80
2019-03-16T05:57:20.233Z,5.57
2019-03-16T06:00:24.153Z,5.43
2019-03-16T06:03:27.770Z,6.17
2019-03-16T06:06:31.996Z,5.60
2019-03-16T06:09:35.912Z,5.20
2019-03-16T06:12:39.891Z,5.47
2019-03-16T06:15:43.788Z,4.97
2019-03-16T06:18:47.748Z,5.37
2019-03-16T06:21:51.354Z,5.50
2019-03-16T06:24:55.558Z,5.23
2019-03-16T06:27:59.142Z,5.40
2019-03-16T06:31:03.089Z,4.70
2019-03-16T06:34:07.003Z,5.03
2019-03-16T06:37:11.014Z,4.50
2019-03-16T06:40:14.657Z,4.80
2019-03-16T06:43:18.835Z,5.20
2019-03-16T06:46:22.463Z,4.77
2019-03-16T06:49:26.054Z,4.50
2019-03-16T06:52:30.002Z,3.90
2019-03-16T06:55:33.606Z,4.20
2019-03-16T06:58:37.516Z,4.40
2019-03-16T07:01:41.689Z,4.47
2019-03-16T07:04:45.588Z,4.23
2019-03-16T07:07:49.205Z,4.20
2019-03-16T07:10:53.428Z,4.30
2019-03-16T07:13:57.282Z,4.17
2019-03-16T07:17:02.499Z,4.30
2019-03-16T07:20:06.708Z,4.03
2019-03-16T07:23:10.815Z,4.30
2019-03-16T07:26:15.390Z,3.70
2019-03-16T07:29:20.287Z,4.03
2019-03-16T07:32:23.966Z,4.00
2019-03-16T07:35:27.533Z,4.03
2019-03-16T07:38:31.162Z,3.63
2019-03-16T07:41:34.790Z,4.03
2019-03-16T07:44:38.433Z,3.90
2019-03-16T07:47:41.971Z,3.57
2019-03-16T07:50:45.909Z,3.77
2019-03-16T07:53:49.851Z,4.47
2019-03-16T07:56:53.437Z,3.57
2019-03-16T07:59:57.096Z,3.27
2019-03-16T08:03:00.692Z,3.77
2019-03-16T08:06:04.271Z,3.57
2019-03-16T08:09:07.918Z,3.43
2019-03-16T08:12:11.715Z,3.47
2019-03-16T08:15:15.678Z,29.47
2019-03-16T08:18:19.596Z,23.97
2019-03-16T08:21:23.491Z,33.63
2019-03-16T08:24:27.243Z,30.13
2019-03-16T08:27:31.429Z,267.27
2019-03-16T08:30:35.282Z,67.43
2019-03-16T08:33:39.237Z,243.43
2019-03-16T08:36:42.839Z,154.67
2019-03-16T08:39:46.740Z,143.80
2019-03-16T08:42:51.520Z,121.57
2019-03-16T08:45:55.393Z,111.23
2019-03-16T08:48:59.416Z,100.37
2019-03-16T08:52:03.376Z,92.00
2019-03-16T08:55:07.375Z,88.40
2019-03-16T08:58:11.133Z,84.60
2019-03-16T09:01:15.517Z,80.30
2019-03-16T09:04:19.281Z,71.10
2019-03-16T09:07:23.605Z,71.40
2019-03-16T09:10:27.884Z,68.73
2019-03-16T09:13:31.847Z,66.30
2019-03-16T09:16:35.998Z,64.53
2019-03-16T09:19:40.052Z,60.17
2019-03-16T09:22:43.915Z,56.80
2019-03-16T09:25:48.275Z,58.10
2019-03-16T09:28:59.964Z,55.77
2019-03-16T09:31:58.489Z,52.33
2019-03-16T09:35:02.306Z,49.40
2019-03-16T09:38:06.500Z,49.27
2019-03-16T09:41:10.952Z,47.10
2019-03-16T09:44:14.848Z,44.10
2019-03-16T09:47:18.522Z,44.00
2019-03-16T09:50:23.093Z,42.20
2019-03-16T09:53:27.251Z,41.87
2019-03-16T09:56:31.199Z,25.07
2019-03-16T09:59:35.547Z,72.00
2019-03-16T10:02:39.392Z,443.20
2019-03-16T10:05:43.756Z,192.13
2019-03-16T10:08:47.541Z,166.77
2019-03-16T10:11:51.578Z,161.83
2019-03-16T10:14:56.108Z,153.03
2019-03-16T10:18:00.037Z,154.17
2019-03-16T10:21:03.994Z,149.23
2019-03-16T10:24:07.613Z,151.07
2019-03-16T10:27:11.623Z,147.17
2019-03-16T10:30:15.466Z,132.30
2019-03-16T10:33:19.526Z,135.03
2019-03-16T10:36:23.193Z,135.50
2019-03-16T10:39:27.478Z,128.53
2019-03-16T10:42:31.278Z,135.63
2019-03-16T10:45:35.139Z,57.93
2019-03-16T10:48:39.107Z,253.27
2019-03-16T10:51:43.056Z,140.90
2019-03-16T10:54:46.731Z,141.53
2019-03-16T10:57:50.395Z,111.53
2019-03-16T11:00:55.634Z,97.30
2019-03-16T11:04:00.568Z,93.23
2019-03-16T11:07:05.989Z,85.77
2019-03-16T11:10:12.344Z,77.83
2019-03-16T11:13:19.188Z,77.93
2019-03-16T11:16:26.423Z,73.73
2019-03-16T11:19:33.679Z,69.77
2019-03-16T11:22:39.937Z,68.13
2019-03-16T11:25:45.881Z,66.87
2019-03-16T11:28:52.139Z,64.57
2019-03-16T11:31:55.820Z,63.47
2019-03-16T11:35:00.895Z,63.27
2019-03-16T11:38:05.378Z,60.03
2019-03-16T11:41:09.299Z,59.67
2019-03-16T11:44:13.176Z,58.53
2019-03-16T11:47:17.455Z,56.77
2019-03-16T11:50:21.375Z,51.37
2019-03-16T11:53:24.994Z,131.13
2019-03-16T11:56:28.962Z,137.40
2019-03-16T11:59:32.706Z,125.67
2019-03-16T12:02:39.413Z,123.60
2019-03-16T12:05:46.069Z,120.07
2019-03-16T12:08:49.926Z,107.00
2019-03-16T12:11:54.131Z,97.80
2019-03-16T12:14:57.749Z,119.40
2019-03-16T12:18:01.439Z,121.67
2019-03-16T12:21:05.473Z,121.03
2019-03-16T12:24:09.100Z,118.40
2019-03-16T12:27:13.054Z,111.50
2019-03-16T12:30:16.751Z,93.47
2019-03-16T12:33:20.409Z,74.30
2019-03-16T12:36:24.244Z,61.90
2019-03-16T12:39:27.836Z,56.37
2019-03-16T12:42:31.778Z,52.23
2019-03-16T12:45:35.731Z,8.17
2019-03-16T12:48:39.328Z,45.13
2019-03-16T12:51:43.190Z,64.37
2019-03-16T12:54:46.801Z,52.63
2019-03-16T12:57:50.406Z,40.90
2019-03-16T13:00:54.073Z,31.13
2019-03-16T13:03:57.980Z,32.97
2019-03-16T13:07:01.848Z,29.97
2019-03-16T13:10:06.782Z,31.10
2019-03-16T13:13:10.714Z,27.53
2019-03-16T13:16:14.322Z,23.67
2019-03-16T13:19:17.953Z,23.27
2019-03-16T13:22:22.070Z,19.70
2019-03-16T13:25:25.958Z,19.93
2019-03-16T13:28:30.168Z,16.37
2019-03-16T13:31:34.081Z,16.80
2019-03-16T13:34:37.707Z,14.53
2019-03-16T13:37:41.561Z,13.70
2019-03-16T13:40:45.185Z,12.83
2019-03-16T13:43:49.113Z,80.50
2019-03-16T13:46:52.855Z,53.50
2019-03-16T13:49:56.507Z,155.80
2019-03-16T13:53:00.429Z,174.10
2019-03-16T13:56:04.089Z,163.77
2019-03-16T13:59:07.724Z,139.90
2019-03-16T14:02:11.457Z,119.50
2019-03-16T14:05:15.414Z,113.93
2019-03-16T14:08:20.105Z,97.47
2019-03-16T14:11:24.045Z,93.13
2019-03-16T14:14:27.908Z,84.23
2019-03-16T14:17:31.568Z,88.03
2019-03-16T14:20:35.403Z,82.70
2019-03-16T14:23:39.291Z,81.40
2019-03-16T14:26:42.918Z,80.07
2019-03-16T14:29:46.875Z,72.23
2019-03-16T14:32:50.880Z,148.60
2019-03-16T14:35:54.831Z,82.47
2019-03-16T14:38:59.088Z,77.93
2019-03-16T14:42:02.714Z,68.90
2019-03-16T14:45:06.986Z,70.53
2019-03-16T14:48:10.634Z,65.33
2019-03-16T14:51:14.248Z,62.80
2019-03-16T14:54:18.389Z,63.93
2019-03-16T14:57:22.131Z,58.30
2019-03-16T15:00:37.782Z,54.97
2019-03-16T15:03:31.069Z,54.83
2019-03-16T15:06:34.701Z,55.17
2019-03-16T15:09:38.619Z,53.53
2019-03-16T15:12:42.348Z,52.23
2019-03-16T15:15:46.202Z,18.47
2019-03-16T15:18:50.433Z,66.80
2019-03-16T15:21:54.081Z,90.90
2019-03-16T15:24:57.692Z,77.57
2019-03-16T15:28:01.964Z,72.83
2019-03-16T15:31:05.563Z,64.73
2019-03-16T15:34:09.183Z,57.90
2019-03-16T15:37:12.825Z,55.03
2019-03-16T15:40:16.930Z,52.63
2019-03-16T15:43:20.535Z,49.50
2019-03-16T15:46:24.197Z,48.30
2019-03-16T15:49:27.803Z,45.17
2019-03-16T15:52:31.656Z,42.77
2019-03-16T15:55:35.341Z,44.90
2019-03-16T15:58:38.965Z,43.70
2019-03-16T16:01:42.585Z,42.97
2019-03-16T16:04:46.208Z,40.43
2019-03-16T16:07:49.910Z,40.93
2019-03-16T16:11:00.860Z,39.43
2019-03-16T16:13:59.239Z,37.37
2019-03-16T16:17:04.860Z,37.00
2019-03-16T16:20:09.316Z,36.63
2019-03-16T16:23:12.996Z,35.20
2019-03-16T16:26:16.627Z,35.10
2019-03-16T16:29:20.287Z,33.90
2019-03-16T16:32:24.203Z,34.70
2019-03-16T16:35:27.826Z,32.60
2019-03-16T16:38:32.053Z,31.67
2019-03-16T16:41:36.008Z,29.77
2019-03-16T16:44:39.693Z,30.77
2019-03-16T16:47:43.686Z,29.90
2019-03-16T16:50:47.610Z,26.97
2019-03-16T16:53:52.014Z,25.80
2019-03-16T16:56:56.148Z,26.90
2019-03-16T17:00:00.077Z,27.17
2019-03-16T17:03:03.703Z,25.13
2019-03-16T17:06:07.567Z,25.00
2019-03-16T17:09:11.163Z,25.93
2019-03-16T17:12:14.875Z,24.83
2019-03-16T17:15:18.528Z,25.87
2019-03-16T17:18:22.415Z,23.50
2019-03-16T17:21:26.044Z,23.93
2019-03-16T17:24:29.633Z,21.47
2019-03-16T17:27:34.118Z,22.60
2019-03-16T17:30:37.723Z,22.40
2019-03-16T17:33:41.345Z,21.87
2019-03-16T17:36:44.949Z,20.50
2019-03-16T17:39:48.543Z,21.00
2019-03-16T17:42:52.671Z,21.33
2019-03-16T17:45:56.603Z,20.20
2019-03-16T17:49:00.759Z,19.83
2019-03-16T17:52:04.518Z,18.43
2019-03-16T17:55:08.439Z,18.17
2019-03-16T17:58:12.055Z,17.27
2019-03-16T18:01:15.935Z,17.63
2019-03-16T18:04:19.555Z,17.33
2019-03-16T18:07:23.436Z,14.83
2019-03-16T18:10:27.036Z,15.13
2019-03-16T18:13:30.645Z,15.00
2019-03-16T18:16:34.267Z,15.40
2019-03-16T18:19:38.483Z,14.63
2019-03-16T18:22:42.576Z,15.83
2019-03-16T18:25:46.822Z,14.67
2019-03-16T18:28:50.902Z,15.23
2019-03-16T18:32:07.024Z,12.37
2019-03-16T18:35:00.567Z,12.93
2019-03-16T18:38:04.711Z,12.07
2019-03-16T18:41:08.317Z,12.53
2019-03-16T18:44:11.941Z,12.90
2019-03-16T18:47:16.117Z,12.07
2019-03-16T18:50:19.729Z,12.60
2019-03-16T18:53:23.664Z,13.03
2019-03-16T18:56:27.858Z,12.33
2019-03-16T18:59:31.799Z,11.80
2019-03-16T19:02:35.519Z,11.60
2019-03-16T19:05:39.122Z,12.80
2019-03-16T19:08:42.726Z,11.13
2019-03-16T19:11:46.325Z,11.20
2019-03-16T19:14:50.232Z,3.37
2019-03-16T19:17:59.146Z,4.57
2019-03-16T19:20:59.233Z,6.70
2019-03-16T19:24:03.182Z,12.50
2019-03-16T19:27:06.769Z,7.93
2019-03-16T19:30:12.294Z,33.33
2019-03-16T19:33:15.901Z,28.67
2019-03-16T19:36:19.502Z,29.50
2019-03-16T19:39:25.110Z,29.57
2019-03-16T19:42:28.469Z,28.43
2019-03-16T19:45:32.073Z,25.20
2019-03-16T19:48:35.963Z,25.43
2019-03-16T19:51:40.129Z,26.40
2019-03-16T19:54:43.752Z,25.27
2019-03-16T19:57:47.666Z,24.90
2019-03-16T20:00:51.554Z,23.10
2019-03-16T20:03:55.157Z,23.53
2019-03-16T20:06:59.049Z,21.67
2019-03-16T20:10:03.024Z,20.97
2019-03-16T20:13:06.907Z,12.27
2019-03-16T20:16:10.530Z,17.53
2019-03-16T20:19:14.541Z,119.67
2019-03-16T20:22:18.506Z,44.67
2019-03-16T20:25:22.364Z,45.07
2019-03-16T20:28:26.200Z,41.27
2019-03-16T20:31:29.800Z,40.73
2019-03-16T20:34:36.704Z,38.83
2019-03-16T20:37:40.646Z,35.63
2019-03-16T20:40:44.337Z,32.47
2019-03-16T20:43:47.947Z,21.47
2019-03-16T20:46:51.888Z,72.60
2019-03-16T20:49:55.511Z,106.80
2019-03-16T20:52:59.387Z,112.00
2019-03-16T20:56:03.001Z,98.77
2019-03-16T20:59:06.605Z,94.17
2019-03-16T21:02:10.215Z,84.53
2019-03-16T21:05:14.603Z,79.90
2019-03-16T21:08:18.212Z,74.40
2019-03-16T21:11:21.902Z,72.43
2019-03-16T21:14:25.535Z,71.63
2019-03-16T21:17:29.443Z,68.33
2019-03-16T21:20:33.474Z,63.57
2019-03-16T21:23:37.368Z,63.30
2019-03-16T21:26:51.913Z,56.33
2019-03-16T21:29:46.623Z,59.63
2019-03-16T21:32:50.237Z,59.97
2019-03-16T21:35:54.093Z,51.63
2019-03-16T21:38:58.050Z,54.83
2019-03-16T21:42:01.661Z,51.27
2019-03-16T21:45:05.865Z,50.00
2019-03-16T21:48:09.576Z,50.30
2019-03-16T21:51:13.162Z,49.27
2019-03-16T21:54:16.767Z,48.00
2019-03-16T21:57:20.586Z,47.83
2019-03-16T22:00:24.308Z,44.80
2019-03-16T22:03:28.174Z,45.07
2019-03-16T22:06:32.122Z,43.53
2019-03-16T22:09:35.720Z,43.83
2019-03-16T22:12:39.590Z,42.93
2019-03-16T22:15:43.203Z,41.63
2019-03-16T22:18:47.253Z,39.67
2019-03-16T22:21:50.865Z,39.60
2019-03-16T22:24:54.765Z,35.83
2019-03-16T22:27:58.506Z,35.13
2019-03-16T22:31:02.111Z,36.10
2019-03-16T22:34:05.718Z,36.60
2019-03-16T22:37:09.316Z,33.17
2019-03-16T22:40:12.926Z,34.57
2019-03-16T22:43:16.794Z,32.00
2019-03-16T22:46:20.711Z,29.73
2019-03-16T22:49:24.845Z,30.20
2019-03-16T22:52:28.444Z,29.63
2019-03-16T22:55:32.066Z,25.10
2019-03-16T22:58:35.676Z,26.90
2019-03-16T23:01:39.338Z,27.60
2019-03-16T23:04:42.939Z,26.37
2019-03-16T23:07:46.550Z,24.43
2019-03-16T23:10:50.507Z,64.13
2019-03-16T23:13:54.415Z,40.47
2019-03-16T23:16:58.015Z,108.17
2019-03-16T23:20:01.914Z,123.43
2019-03-16T23:23:05.574Z,97.47
2019-03-16T23:26:09.218Z,87.23
2019-03-16T23:29:13.095Z,84.30
2019-03-16T23:32:16.724Z,75.73
2019-03-16T23:35:20.567Z,70.23
2019-03-16T23:38:24.243Z,72.00
2019-03-16T23:41:28.152Z,68.37
2019-03-16T23:44:33.900Z,65.33
2019-03-16T23:47:37.741Z,62.30
2019-03-16T23:50:41.636Z,69.17
2019-03-16T23:53:45.246Z,94.43
2019-03-16T23:56:49.103Z,89.93
2019-03-16T23:59:52.735Z,75.23
